Bachir Chihani — 7TJA — position and weather

sailwx.info

Track history (hours):
 
Tides and Currents Weather Stations Pressure Air Temp Water Temp Dewpoint Dewpoint Depression Visibility Wind Speed Wind Dir Waves Ship Positions

Bachir Chihani

Last reported at 2015-Apr-18 14:33 UTC. Time now 2015-Apr-18 15:15 UTC.
Position N 36°06' W 000°00'.

Length 280 m; draft 9.6 m.

Type: Ship (hazmat cat C). MMSI: 605106010.

Date/timePositionNaut miles runAvg speedWind from/ knotsBaromVisibWave heightAir tempDewpointWater temp
2015-Apr-18 14:33N 36°06' W 000°00'1 1.2
2015-Apr-18 13:31N 36°05' W 000°00'3 0.2
2015-Apr-17 21:33N 36°04' W 000°04'3 2.8
2015-Apr-17 20:33N 36°05' W 000°07'3 0.1
2015-Apr-16 19:25N 36°04' W 000°03'14 0.3
2015-Apr-14 22:30N 36°17' E 000°05'3 2.6
2015-Apr-14 21:15N 36°14' E 000°03'2 2.6
2015-Apr-14 20:33N 36°13' E 000°01'3 2.8
2015-Apr-14 19:33N 36°11' W 000°01'3 2.5
2015-Apr-14 18:33N 36°09' W 000°03'4 4.4
2015-Apr-14 17:33N 36°05' W 000°04'2 2.4
2015-Apr-14 16:33N 36°02' W 000°06'3 2.5
2015-Apr-14 15:33N 35°60' W 000°06'5 3.6
2015-Apr-14 14:10N 35°55' W 000°08'1 1.8
2015-Apr-14 13:26N 35°54' W 000°09'24 2.8
2015-Apr-14 05:06N 36°15' E 000°05'12 4.7
2015-Apr-14 02:27N 36°21' E 000°18'4 4.7
2015-Apr-14 01:33N 36°23' E 000°23'1 1.4
2015-Apr-14 00:33N 36°23' E 000°21'3 3.0
2015-Apr-13 23:33N 36°22' E 000°18'2 2.4
2015-Apr-13 22:33N 36°20' E 000°16'3 2.6
2015-Apr-13 21:34N 36°19' E 000°13'2 2.4
2015-Apr-13 20:33N 36°17' E 000°10'2 2.1
2015-Apr-13 19:33N 36°16' E 000°08'2 1.8
2015-Apr-13 18:33N 36°15' E 000°07'2 1.9
2015-Apr-13 17:33N 36°14' E 000°04'2 2.0
2015-Apr-13 16:33N 36°13' E 000°02'2 2.3
2015-Apr-13 15:33N 36°12' E 000°00'3 2.7
2015-Apr-13 14:33N 36°09' W 000°01'3 2.9
2015-Apr-13 13:33N 36°07' W 000°03'2 1.6
2015-Apr-13 12:33N 36°05' W 000°04'5 4.8
2015-Apr-13 11:33N 36°10' W 000°01'6 4.8
2015-Apr-13 10:21N 36°14' E 000°04'9 5.2
2015-Apr-13 08:31N 36°18' E 000°14'10 5.0
2015-Apr-13 06:33N 36°24' E 000°24'1 0.6
2015-Apr-13 05:33N 36°23' E 000°24'5 4.2
2015-Apr-13 04:20N 36°21' E 000°19'3 4.0
2015-Apr-13 03:33N 36°19' E 000°15'4 3.7
2015-Apr-13 02:33N 36°18' E 000°11'3 3.4
2015-Apr-13 01:33N 36°16' E 000°08'3 3.2
2015-Apr-13 00:33N 36°14' E 000°04'4 3.1
2015-Apr-12 23:15N 36°11' E 000°01'2 3.0
2015-Apr-12 22:33N 36°10' W 000°01'3 2.8
2015-Apr-12 21:33N 36°08' W 000°04'3 2.5
2015-Apr-12 20:09N 36°05' W 000°06'3 3.2
2015-Apr-12 19:13N 36°02' W 000°07'2 2.8
2015-Apr-12 18:28N 36°00' W 000°08'2 2.6
2015-Apr-12 17:33N 35°58' W 000°09'2 2.5
2015-Apr-12 16:33N 35°57' W 000°12'2 1.6
2015-Apr-12 15:29N 35°55' W 000°12'2 2.1
2015-Apr-12 14:32N 35°55' W 000°10'1 1.2
2015-Apr-12 13:33N 35°54' W 000°11'132 8.2
2015-Apr-11 21:23N 36°54' E 002°16'1113.2
2015-Apr-11 20:32N 36°55' E 002°30'1312.5
2015-Apr-11 19:31N 36°58' E 002°46'1212.0
2015-Apr-11 18:30N 36°60' E 003°01'5012.5
2015-Apr-11 14:30N 37°05' E 004°03'45512.0
2015-Apr-10 00:33N 36°39' E 013°31'1312.4
2015-Apr-09 23:32N 36°37' E 013°47'1212.6
2015-Apr-09 22:33N 36°35' E 014°02'1312.6
2015-Apr-09 21:33N 36°33' E 014°17'1212.3
2015-Apr-09 20:33N 36°29' E 014°32'  
Track history (hours):
 
Tides and Currents Weather Stations Pressure Air Temp Water Temp Dewpoint Dewpoint Depression Visibility Wind Speed Wind Dir Waves Ship Positions

Bachir Chihani

Last reported at 2015-Apr-18 14:33 UTC. Time now 2015-Apr-18 15:15 UTC.
Position N 36°06' W 000°00'.

Length 280 m; draft 9.6 m.

Type: Ship (hazmat cat C). MMSI: 605106010.

Date/timePositionNaut miles runAvg speedWind from/ knotsBaromVisibWave heightAir tempDewpointWater temp
2015-Apr-18 14:33N 36°06' W 000°00'1 1.2
2015-Apr-18 13:31N 36°05' W 000°00'3 0.2
2015-Apr-17 21:33N 36°04' W 000°04'3 2.8
2015-Apr-17 20:33N 36°05' W 000°07'3 0.1
2015-Apr-16 19:25N 36°04' W 000°03'14 0.3
2015-Apr-14 22:30N 36°17' E 000°05'3 2.6
2015-Apr-14 21:15N 36°14' E 000°03'2 2.6
2015-Apr-14 20:33N 36°13' E 000°01'3 2.8
2015-Apr-14 19:33N 36°11' W 000°01'3 2.5
2015-Apr-14 18:33N 36°09' W 000°03'4 4.4
2015-Apr-14 17:33N 36°05' W 000°04'2 2.4
2015-Apr-14 16:33N 36°02' W 000°06'3 2.5
2015-Apr-14 15:33N 35°60' W 000°06'5 3.6
2015-Apr-14 14:10N 35°55' W 000°08'1 1.8
2015-Apr-14 13:26N 35°54' W 000°09'24 2.8
2015-Apr-14 05:06N 36°15' E 000°05'12 4.7
2015-Apr-14 02:27N 36°21' E 000°18'4 4.7
2015-Apr-14 01:33N 36°23' E 000°23'1 1.4
2015-Apr-14 00:33N 36°23' E 000°21'3 3.0
2015-Apr-13 23:33N 36°22' E 000°18'2 2.4
2015-Apr-13 22:33N 36°20' E 000°16'3 2.6
2015-Apr-13 21:34N 36°19' E 000°13'2 2.4
2015-Apr-13 20:33N 36°17' E 000°10'2 2.1
2015-Apr-13 19:33N 36°16' E 000°08'2 1.8
2015-Apr-13 18:33N 36°15' E 000°07'2 1.9
2015-Apr-13 17:33N 36°14' E 000°04'2 2.0
2015-Apr-13 16:33N 36°13' E 000°02'2 2.3
2015-Apr-13 15:33N 36°12' E 000°00'3 2.7
2015-Apr-13 14:33N 36°09' W 000°01'3 2.9
2015-Apr-13 13:33N 36°07' W 000°03'2 1.6
2015-Apr-13 12:33N 36°05' W 000°04'5 4.8
2015-Apr-13 11:33N 36°10' W 000°01'6 4.8
2015-Apr-13 10:21N 36°14' E 000°04'9 5.2
2015-Apr-13 08:31N 36°18' E 000°14'10 5.0
2015-Apr-13 06:33N 36°24' E 000°24'1 0.6
2015-Apr-13 05:33N 36°23' E 000°24'5 4.2
2015-Apr-13 04:20N 36°21' E 000°19'3 4.0
2015-Apr-13 03:33N 36°19' E 000°15'4 3.7
2015-Apr-13 02:33N 36°18' E 000°11'3 3.4
2015-Apr-13 01:33N 36°16' E 000°08'3 3.2
2015-Apr-13 00:33N 36°14' E 000°04'4 3.1
2015-Apr-12 23:15N 36°11' E 000°01'2 3.0
2015-Apr-12 22:33N 36°10' W 000°01'3 2.8
2015-Apr-12 21:33N 36°08' W 000°04'3 2.5
2015-Apr-12 20:09N 36°05' W 000°06'3 3.2
2015-Apr-12 19:13N 36°02' W 000°07'2 2.8
2015-Apr-12 18:28N 36°00' W 000°08'2 2.6
2015-Apr-12 17:33N 35°58' W 000°09'2 2.5
2015-Apr-12 16:33N 35°57' W 000°12'2 1.6
2015-Apr-12 15:29N 35°55' W 000°12'2 2.1
2015-Apr-12 14:32N 35°55' W 000°10'1 1.2
2015-Apr-12 13:33N 35°54' W 000°11'132 8.2
2015-Apr-11 21:23N 36°54' E 002°16'1113.2
2015-Apr-11 20:32N 36°55' E 002°30'1312.5
2015-Apr-11 19:31N 36°58' E 002°46'1212.0
2015-Apr-11 18:30N 36°60' E 003°01'5012.5
2015-Apr-11 14:30N 37°05' E 004°03'45512.0
2015-Apr-10 00:33N 36°39' E 013°31'1312.4
2015-Apr-09 23:32N 36°37' E 013°47'1212.6
2015-Apr-09 22:33N 36°35' E 014°02'1312.6
2015-Apr-09 21:33N 36°33' E 014°17'1212.3
2015-Apr-09 20:33N 36°29' E 014°32'  

Dump ship's entire track history